sensor_id;sensor_type;location;lat;lon;timestamp;temperature;humidity
17565;DHT22;62994;52.126;5.596;2024-03-02T00:00:50;9.70;99.90
17565;DHT22;62994;52.126;5.596;2024-03-02T00:03:18;9.80;99.90
17565;DHT22;62994;52.126;5.596;2024-03-02T00:05:50;9.70;99.90
17565;DHT22;62994;52.126;5.596;2024-03-02T00:08:24;9.80;99.90
17565;DHT22;62994;52.126;5.596;2024-03-02T00:10:57;9.80;99.90
17565;DHT22;62994;52.126;5.596;2024-03-02T00:13:24;9.80;99.90
17565;DHT22;62994;52.126;5.596;2024-03-02T00:15:53;9.80;99.90
17565;DHT22;62994;52.126;5.596;2024-03-02T00:18:25;9.80;99.90
17565;DHT22;62994;52.126;5.596;2024-03-02T00:20:54;9.80;99.90
17565;DHT22;62994;52.126;5.596;2024-03-02T00:23:27;9.80;99.90
17565;DHT22;62994;52.126;5.596;2024-03-02T00:25:57;9.80;99.90
17565;DHT22;62994;52.126;5.596;2024-03-02T00:28:27;9.80;99.90
17565;DHT22;62994;52.126;5.596;2024-03-02T00:30:57;9.80;99.90
17565;DHT22;62994;52.126;5.596;2024-03-02T00:33:27;9.70;99.90
17565;DHT22;62994;52.126;5.596;2024-03-02T00:35:56;9.80;99.90
17565;DHT22;62994;52.126;5.596;2024-03-02T00:38:25;9.80;99.90
17565;DHT22;62994;52.126;5.596;2024-03-02T00:40:53;9.80;99.90
17565;DHT22;62994;52.126;5.596;2024-03-02T00:43:41;9.80;99.90
17565;DHT22;62994;52.126;5.596;2024-03-02T00:46:10;9.80;99.90
17565;DHT22;62994;52.126;5.596;2024-03-02T00:48:38;9.80;99.90
17565;DHT22;62994;52.126;5.596;2024-03-02T00:51:06;9.80;99.90
17565;DHT22;62994;52.126;5.596;2024-03-02T00:53:34;9.70;99.90
17565;DHT22;62994;52.126;5.596;2024-03-02T00:56:02;9.70;99.90
17565;DHT22;62994;52.126;5.596;2024-03-02T00:58:29;9.70;99.90
17565;DHT22;62994;52.126;5.596;2024-03-02T01:00:56;9.70;99.90
17565;DHT22;62994;52.126;5.596;2024-03-02T01:03:23;9.70;99.90
17565;DHT22;62994;52.126;5.596;2024-03-02T01:05:50;9.80;99.90
17565;DHT22;62994;52.126;5.596;2024-03-02T01:08:20;9.80;99.90
17565;DHT22;62994;52.126;5.596;2024-03-02T01:10:50;9.80;99.90
17565;DHT22;62994;52.126;5.596;2024-03-02T01:13:17;9.80;99.90
17565;DHT22;62994;52.126;5.596;2024-03-02T01:15:45;9.80;99.90
17565;DHT22;62994;52.126;5.596;2024-03-02T01:18:12;9.70;99.90
17565;DHT22;62994;52.126;5.596;2024-03-02T01:20:38;9.70;99.90
17565;DHT22;62994;52.126;5.596;2024-03-02T01:23:05;9.70;99.90
17565;DHT22;62994;52.126;5.596;2024-03-02T01:25:35;9.70;99.90
17565;DHT22;62994;52.126;5.596;2024-03-02T01:28:02;9.70;99.90
17565;DHT22;62994;52.126;5.596;2024-03-02T01:30:29;9.70;99.90
17565;DHT22;62994;52.126;5.596;2024-03-02T01:32:57;9.70;99.90
17565;DHT22;62994;52.126;5.596;2024-03-02T01:35:24;9.70;99.90
17565;DHT22;62994;52.126;5.596;2024-03-02T01:37:52;9.60;99.90
17565;DHT22;62994;52.126;5.596;2024-03-02T01:40:19;9.60;99.90
17565;DHT22;62994;52.126;5.596;2024-03-02T01:42:48;9.70;99.90
17565;DHT22;62994;52.126;5.596;2024-03-02T01:45:15;9.70;99.90
17565;DHT22;62994;52.126;5.596;2024-03-02T01:47:43;9.60;99.90
17565;DHT22;62994;52.126;5.596;2024-03-02T01:50:11;9.70;99.90
17565;DHT22;62994;52.126;5.596;2024-03-02T01:52:39;9.70;99.90
17565;DHT22;62994;52.126;5.596;2024-03-02T01:55:07;9.70;99.90
17565;DHT22;62994;52.126;5.596;2024-03-02T01:57:34;9.60;99.90
17565;DHT22;62994;52.126;5.596;2024-03-02T02:00:03;9.60;99.90
17565;DHT22;62994;52.126;5.596;2024-03-02T02:02:31;9.60;99.90
17565;DHT22;62994;52.126;5.596;2024-03-02T02:04:58;9.50;99.90
17565;DHT22;62994;52.126;5.596;2024-03-02T02:07:26;9.50;99.90
17565;DHT22;62994;52.126;5.596;2024-03-02T02:09:53;9.50;99.90
17565;DHT22;62994;52.126;5.596;2024-03-02T02:12:20;9.50;99.90
17565;DHT22;62994;52.126;5.596;2024-03-02T02:14:48;9.50;99.90
17565;DHT22;62994;52.126;5.596;2024-03-02T02:17:17;9.40;99.90
17565;DHT22;62994;52.126;5.596;2024-03-02T02:19:44;9.40;99.90
17565;DHT22;62994;52.126;5.596;2024-03-02T02:22:13;9.30;99.90
17565;DHT22;62994;52.126;5.596;2024-03-02T02:24:40;9.30;99.90
17565;DHT22;62994;52.126;5.596;2024-03-02T02:27:10;9.40;99.90
17565;DHT22;62994;52.126;5.596;2024-03-02T02:29:40;9.40;99.90
17565;DHT22;62994;52.126;5.596;2024-03-02T02:32:07;9.30;99.90
17565;DHT22;62994;52.126;5.596;2024-03-02T02:34:34;9.20;99.90
17565;DHT22;62994;52.126;5.596;2024-03-02T02:37:01;9.10;99.90
17565;DHT22;62994;52.126;5.596;2024-03-02T02:39:30;9.10;99.90
17565;DHT22;62994;52.126;5.596;2024-03-02T02:41:57;9.20;99.90
17565;DHT22;62994;52.126;5.596;2024-03-02T02:44:27;9.10;99.90
17565;DHT22;62994;52.126;5.596;2024-03-02T02:46:54;9.10;99.90
17565;DHT22;62994;52.126;5.596;2024-03-02T02:49:21;9.20;99.90
17565;DHT22;62994;52.126;5.596;2024-03-02T02:51:48;9.20;99.90
17565;DHT22;62994;52.126;5.596;2024-03-02T02:54:15;9.10;99.90
17565;DHT22;62994;52.126;5.596;2024-03-02T02:56:43;9.10;99.90
17565;DHT22;62994;52.126;5.596;2024-03-02T02:59:10;9.00;99.90
17565;DHT22;62994;52.126;5.596;2024-03-02T03:01:37;9.00;99.90
17565;DHT22;62994;52.126;5.596;2024-03-02T03:04:05;9.00;99.90
17565;DHT22;62994;52.126;5.596;2024-03-02T03:06:32;9.00;99.90
17565;DHT22;62994;52.126;5.596;2024-03-02T03:08:59;8.90;99.90
17565;DHT22;62994;52.126;5.596;2024-03-02T03:11:27;8.90;99.90
17565;DHT22;62994;52.126;5.596;2024-03-02T03:13:56;9.00;99.90
17565;DHT22;62994;52.126;5.596;2024-03-02T03:16:23;8.90;99.90
17565;DHT22;62994;52.126;5.596;2024-03-02T03:18:52;8.90;99.90
17565;DHT22;62994;52.126;5.596;2024-03-02T03:21:19;9.00;99.90
17565;DHT22;62994;52.126;5.596;2024-03-02T03:23:46;9.00;99.90
17565;DHT22;62994;52.126;5.596;2024-03-02T03:26:14;9.00;99.90
17565;DHT22;62994;52.126;5.596;2024-03-02T03:28:42;9.00;99.90
17565;DHT22;62994;52.126;5.596;2024-03-02T03:31:12;8.90;99.90
17565;DHT22;62994;52.126;5.596;2024-03-02T03:33:44;9.00;99.90
17565;DHT22;62994;52.126;5.596;2024-03-02T03:36:11;9.00;99.90
17565;DHT22;62994;52.126;5.596;2024-03-02T03:38:38;9.00;99.90
17565;DHT22;62994;52.126;5.596;2024-03-02T03:41:05;8.90;99.90
17565;DHT22;62994;52.126;5.596;2024-03-02T03:43:32;9.00;99.90
17565;DHT22;62994;52.126;5.596;2024-03-02T03:45:59;8.90;99.90
17565;DHT22;62994;52.126;5.596;2024-03-02T03:48:28;8.90;99.90
17565;DHT22;62994;52.126;5.596;2024-03-02T03:50:56;9.00;99.90
17565;DHT22;62994;52.126;5.596;2024-03-02T03:53:25;9.00;99.90
17565;DHT22;62994;52.126;5.596;2024-03-02T03:55:52;9.00;99.90
17565;DHT22;62994;52.126;5.596;2024-03-02T03:58:19;8.90;99.90
17565;DHT22;62994;52.126;5.596;2024-03-02T04:00:46;8.90;99.90
17565;DHT22;62994;52.126;5.596;2024-03-02T04:03:13;8.90;99.90
17565;DHT22;62994;52.126;5.596;2024-03-02T04:05:48;8.90;99.90
17565;DHT22;62994;52.126;5.596;2024-03-02T04:08:15;8.90;99.90
17565;DHT22;62994;52.126;5.596;2024-03-02T04:10:42;8.90;99.90
17565;DHT22;62994;52.126;5.596;2024-03-02T04:13:09;8.80;99.90
17565;DHT22;62994;52.126;5.596;2024-03-02T04:15:36;8.80;99.90
17565;DHT22;62994;52.126;5.596;2024-03-02T04:18:04;8.90;99.90
17565;DHT22;62994;52.126;5.596;2024-03-02T04:20:31;8.80;99.90
17565;DHT22;62994;52.126;5.596;2024-03-02T04:23:00;8.80;99.90
17565;DHT22;62994;52.126;5.596;2024-03-02T04:25:27;8.80;99.90
17565;DHT22;62994;52.126;5.596;2024-03-02T04:27:54;8.80;99.90
17565;DHT22;62994;52.126;5.596;2024-03-02T04:30:28;8.70;99.90
17565;DHT22;62994;52.126;5.596;2024-03-02T04:32:55;8.70;99.90
17565;DHT22;62994;52.126;5.596;2024-03-02T04:35:22;8.80;99.90
17565;DHT22;62994;52.126;5.596;2024-03-02T04:37:50;8.80;99.90
17565;DHT22;62994;52.126;5.596;2024-03-02T04:40:19;8.70;99.90
17565;DHT22;62994;52.126;5.596;2024-03-02T04:42:46;8.70;99.90
17565;DHT22;62994;52.126;5.596;2024-03-02T04:45:13;8.70;99.90
17565;DHT22;62994;52.126;5.596;2024-03-02T04:47:40;8.70;99.90
17565;DHT22;62994;52.126;5.596;2024-03-02T04:50:08;8.70;99.90
17565;DHT22;62994;52.126;5.596;2024-03-02T04:52:36;8.70;99.90
17565;DHT22;62994;52.126;5.596;2024-03-02T04:55:03;8.60;99.90
17565;DHT22;62994;52.126;5.596;2024-03-02T04:57:52;8.70;99.90
17565;DHT22;62994;52.126;5.596;2024-03-02T05:00:20;8.70;99.90
17565;DHT22;62994;52.126;5.596;2024-03-02T05:02:47;8.70;99.90
17565;DHT22;62994;52.126;5.596;2024-03-02T05:05:14;8.60;99.90
17565;DHT22;62994;52.126;5.596;2024-03-02T05:07:41;8.70;99.90
17565;DHT22;62994;52.126;5.596;2024-03-02T05:10:09;8.70;99.90
17565;DHT22;62994;52.126;5.596;2024-03-02T05:12:38;8.70;99.90
17565;DHT22;62994;52.126;5.596;2024-03-02T05:15:23;8.60;99.90
17565;DHT22;62994;52.126;5.596;2024-03-02T05:17:51;8.60;99.90
17565;DHT22;62994;52.126;5.596;2024-03-02T05:20:19;8.60;99.90
17565;DHT22;62994;52.126;5.596;2024-03-02T05:22:46;8.60;99.90
17565;DHT22;62994;52.126;5.596;2024-03-02T05:25:15;8.50;99.90
17565;DHT22;62994;52.126;5.596;2024-03-02T05:27:42;8.60;99.90
17565;DHT22;62994;52.126;5.596;2024-03-02T05:30:10;8.60;99.90
17565;DHT22;62994;52.126;5.596;2024-03-02T05:32:39;8.60;99.90
17565;DHT22;62994;52.126;5.596;2024-03-02T05:35:07;8.60;99.90
17565;DHT22;62994;52.126;5.596;2024-03-02T05:37:36;8.60;99.90
17565;DHT22;62994;52.126;5.596;2024-03-02T05:40:04;8.60;99.90
17565;DHT22;62994;52.126;5.596;2024-03-02T05:42:31;8.60;99.90
17565;DHT22;62994;52.126;5.596;2024-03-02T05:44:58;8.60;99.90
17565;DHT22;62994;52.126;5.596;2024-03-02T05:47:26;8.60;99.90
17565;DHT22;62994;52.126;5.596;2024-03-02T05:49:54;8.60;99.90
17565;DHT22;62994;52.126;5.596;2024-03-02T05:52:21;8.60;99.90
17565;DHT22;62994;52.126;5.596;2024-03-02T05:54:48;8.60;99.90
17565;DHT22;62994;52.126;5.596;2024-03-02T05:57:16;8.60;99.90
17565;DHT22;62994;52.126;5.596;2024-03-02T05:59:57;8.70;99.90
17565;DHT22;62994;52.126;5.596;2024-03-02T06:02:25;8.70;99.90
17565;DHT22;62994;52.126;5.596;2024-03-02T06:04:56;8.80;99.90
17565;DHT22;62994;52.126;5.596;2024-03-02T06:07:24;8.80;99.90
17565;DHT22;62994;52.126;5.596;2024-03-02T06:09:53;8.80;99.90
17565;DHT22;62994;52.126;5.596;2024-03-02T06:12:20;8.70;99.90
17565;DHT22;62994;52.126;5.596;2024-03-02T06:14:47;8.70;99.90
17565;DHT22;62994;52.126;5.596;2024-03-02T06:17:16;8.70;99.90
17565;DHT22;62994;52.126;5.596;2024-03-02T06:19:46;8.60;99.90
17565;DHT22;62994;52.126;5.596;2024-03-02T06:22:15;8.60;99.90
17565;DHT22;62994;52.126;5.596;2024-03-02T06:24:42;8.50;99.90
17565;DHT22;62994;52.126;5.596;2024-03-02T06:27:09;8.60;99.90
17565;DHT22;62994;52.126;5.596;2024-03-02T06:29:36;8.50;99.90
17565;DHT22;62994;52.126;5.596;2024-03-02T06:32:04;8.50;99.90
17565;DHT22;62994;52.126;5.596;2024-03-02T06:34:31;8.50;99.90
17565;DHT22;62994;52.126;5.596;2024-03-02T06:36:58;8.50;99.90
17565;DHT22;62994;52.126;5.596;2024-03-02T06:39:26;8.50;99.90
17565;DHT22;62994;52.126;5.596;2024-03-02T06:41:55;8.40;99.90
17565;DHT22;62994;52.126;5.596;2024-03-02T06:44:22;8.40;99.90
17565;DHT22;62994;52.126;5.596;2024-03-02T06:46:49;8.30;99.90
17565;DHT22;62994;52.126;5.596;2024-03-02T06:49:16;8.30;99.90
17565;DHT22;62994;52.126;5.596;2024-03-02T06:51:44;8.30;99.90
17565;DHT22;62994;52.126;5.596;2024-03-02T06:54:11;8.30;99.90
17565;DHT22;62994;52.126;5.596;2024-03-02T06:56:40;8.20;99.90
17565;DHT22;62994;52.126;5.596;2024-03-02T06:59:09;8.20;99.90
17565;DHT22;62994;52.126;5.596;2024-03-02T07:01:37;8.20;99.90
17565;DHT22;62994;52.126;5.596;2024-03-02T07:04:04;8.20;99.90
17565;DHT22;62994;52.126;5.596;2024-03-02T07:06:32;8.20;99.90
17565;DHT22;62994;52.126;5.596;2024-03-02T07:08:59;8.10;99.90
17565;DHT22;62994;52.126;5.596;2024-03-02T07:11:26;8.10;99.90
17565;DHT22;62994;52.126;5.596;2024-03-02T07:13:55;8.10;99.90
17565;DHT22;62994;52.126;5.596;2024-03-02T07:16:22;8.10;99.90
17565;DHT22;62994;52.126;5.596;2024-03-02T07:18:54;8.10;99.90
17565;DHT22;62994;52.126;5.596;2024-03-02T07:21:23;8.10;99.90
17565;DHT22;62994;52.126;5.596;2024-03-02T07:23:50;8.10;99.90
17565;DHT22;62994;52.126;5.596;2024-03-02T07:26:18;8.10;99.90
17565;DHT22;62994;52.126;5.596;2024-03-02T07:28:46;8.10;99.90
17565;DHT22;62994;52.126;5.596;2024-03-02T07:31:18;8.10;99.90
17565;DHT22;62994;52.126;5.596;2024-03-02T07:33:45;8.10;99.90
17565;DHT22;62994;52.126;5.596;2024-03-02T07:36:19;8.10;99.90
17565;DHT22;62994;52.126;5.596;2024-03-02T07:38:46;8.10;99.90
17565;DHT22;62994;52.126;5.596;2024-03-02T07:41:15;8.10;99.90
17565;DHT22;62994;52.126;5.596;2024-03-02T07:43:57;8.10;99.90
17565;DHT22;62994;52.126;5.596;2024-03-02T07:46:33;8.10;99.90
17565;DHT22;62994;52.126;5.596;2024-03-02T07:49:00;8.20;99.90
17565;DHT22;62994;52.126;5.596;2024-03-02T07:51:27;8.20;99.90
17565;DHT22;62994;52.126;5.596;2024-03-02T07:53:54;8.20;99.90
17565;DHT22;62994;52.126;5.596;2024-03-02T07:56:21;8.20;99.90
17565;DHT22;62994;52.126;5.596;2024-03-02T07:58:48;8.30;99.90
17565;DHT22;62994;52.126;5.596;2024-03-02T08:01:15;8.30;99.90
17565;DHT22;62994;52.126;5.596;2024-03-02T08:03:50;8.40;99.90
17565;DHT22;62994;52.126;5.596;2024-03-02T08:06:18;8.40;99.90
17565;DHT22;62994;52.126;5.596;2024-03-02T08:08:47;8.40;99.90
17565;DHT22;62994;52.126;5.596;2024-03-02T08:11:14;8.50;99.90
17565;DHT22;62994;52.126;5.596;2024-03-02T08:13:41;8.60;99.90
17565;DHT22;62994;52.126;5.596;2024-03-02T08:16:08;8.60;99.90
17565;DHT22;62994;52.126;5.596;2024-03-02T08:18:40;8.60;99.90
17565;DHT22;62994;52.126;5.596;2024-03-02T08:21:09;8.60;99.90
17565;DHT22;62994;52.126;5.596;2024-03-02T08:23:36;8.70;99.90
17565;DHT22;62994;52.126;5.596;2024-03-02T08:26:04;8.70;99.90
17565;DHT22;62994;52.126;5.596;2024-03-02T08:28:32;8.80;99.90
17565;DHT22;62994;52.126;5.596;2024-03-02T08:31:00;8.80;99.90
17565;DHT22;62994;52.126;5.596;2024-03-02T08:33:27;8.80;99.90
17565;DHT22;62994;52.126;5.596;2024-03-02T08:35:57;8.80;99.90
17565;DHT22;62994;52.126;5.596;2024-03-02T08:38:26;8.80;99.90
17565;DHT22;62994;52.126;5.596;2024-03-02T08:40:54;8.90;99.90
17565;DHT22;62994;52.126;5.596;2024-03-02T08:43:21;8.80;99.90
17565;DHT22;62994;52.126;5.596;2024-03-02T08:45:48;8.80;99.90
17565;DHT22;62994;52.126;5.596;2024-03-02T08:48:16;8.90;99.90
17565;DHT22;62994;52.126;5.596;2024-03-02T08:50:43;8.90;99.90
17565;DHT22;62994;52.126;5.596;2024-03-02T08:53:11;8.90;99.90
17565;DHT22;62994;52.126;5.596;2024-03-02T08:55:39;8.90;99.90
17565;DHT22;62994;52.126;5.596;2024-03-02T08:58:07;9.00;99.90
17565;DHT22;62994;52.126;5.596;2024-03-02T09:00:34;9.00;99.90
17565;DHT22;62994;52.126;5.596;2024-03-02T09:03:01;9.20;99.90
17565;DHT22;62994;52.126;5.596;2024-03-02T09:05:30;9.20;99.90
17565;DHT22;62994;52.126;5.596;2024-03-02T09:07:57;9.20;99.90
17565;DHT22;62994;52.126;5.596;2024-03-02T09:10:24;9.30;99.90
17565;DHT22;62994;52.126;5.596;2024-03-02T09:12:57;9.30;99.90
17565;DHT22;62994;52.126;5.596;2024-03-02T09:15:25;9.40;99.90
17565;DHT22;62994;52.126;5.596;2024-03-02T09:17:53;9.40;99.90
17565;DHT22;62994;52.126;5.596;2024-03-02T09:20:20;9.50;99.90
17565;DHT22;62994;52.126;5.596;2024-03-02T09:22:48;9.60;99.90
17565;DHT22;62994;52.126;5.596;2024-03-02T09:25:15;9.60;99.90
17565;DHT22;62994;52.126;5.596;2024-03-02T09:27:42;9.60;99.90
17565;DHT22;62994;52.126;5.596;2024-03-02T09:30:13;9.70;99.90
17565;DHT22;62994;52.126;5.596;2024-03-02T09:32:40;9.70;99.90
17565;DHT22;62994;52.126;5.596;2024-03-02T09:35:08;9.80;99.90
17565;DHT22;62994;52.126;5.596;2024-03-02T09:37:40;9.80;99.90
17565;DHT22;62994;52.126;5.596;2024-03-02T09:40:08;9.90;99.90
17565;DHT22;62994;52.126;5.596;2024-03-02T09:42:36;10.00;99.90
17565;DHT22;62994;52.126;5.596;2024-03-02T09:45:05;10.10;99.90
17565;DHT22;62994;52.126;5.596;2024-03-02T09:47:34;10.20;99.90
17565;DHT22;62994;52.126;5.596;2024-03-02T09:50:01;10.20;99.90
17565;DHT22;62994;52.126;5.596;2024-03-02T09:52:30;10.30;99.90
17565;DHT22;62994;52.126;5.596;2024-03-02T09:54:58;10.40;99.90
17565;DHT22;62994;52.126;5.596;2024-03-02T09:57:25;10.50;99.90
17565;DHT22;62994;52.126;5.596;2024-03-02T09:59:53;10.50;99.90
17565;DHT22;62994;52.126;5.596;2024-03-02T10:02:20;10.60;99.90
17565;DHT22;62994;52.126;5.596;2024-03-02T10:04:50;10.60;99.90
17565;DHT22;62994;52.126;5.596;2024-03-02T10:07:18;10.70;99.90
17565;DHT22;62994;52.126;5.596;2024-03-02T10:09:46;10.70;99.90
17565;DHT22;62994;52.126;5.596;2024-03-02T10:12:15;10.80;99.90
17565;DHT22;62994;52.126;5.596;2024-03-02T10:14:45;10.90;99.90
17565;DHT22;62994;52.126;5.596;2024-03-02T10:17:14;10.90;99.90
17565;DHT22;62994;52.126;5.596;2024-03-02T10:19:43;11.00;99.90
17565;DHT22;62994;52.126;5.596;2024-03-02T10:22:12;11.10;99.90
17565;DHT22;62994;52.126;5.596;2024-03-02T10:24:44;11.10;99.90
17565;DHT22;62994;52.126;5.596;2024-03-02T10:27:16;11.10;99.90
17565;DHT22;62994;52.126;5.596;2024-03-02T10:29:46;11.30;99.90
17565;DHT22;62994;52.126;5.596;2024-03-02T10:32:13;11.30;99.90
17565;DHT22;62994;52.126;5.596;2024-03-02T10:34:41;11.40;99.90
17565;DHT22;62994;52.126;5.596;2024-03-02T10:37:08;11.50;99.90
17565;DHT22;62994;52.126;5.596;2024-03-02T10:39:39;11.60;99.90
17565;DHT22;62994;52.126;5.596;2024-03-02T10:42:12;11.60;99.90
17565;DHT22;62994;52.126;5.596;2024-03-02T10:44:41;11.70;99.90
17565;DHT22;62994;52.126;5.596;2024-03-02T10:47:09;11.70;99.90
17565;DHT22;62994;52.126;5.596;2024-03-02T10:49:42;11.70;99.90
17565;DHT22;62994;52.126;5.596;2024-03-02T10:52:14;11.80;99.90
17565;DHT22;62994;52.126;5.596;2024-03-02T10:54:42;11.90;99.90
17565;DHT22;62994;52.126;5.596;2024-03-02T10:57:10;11.90;99.90
17565;DHT22;62994;52.126;5.596;2024-03-02T10:59:46;12.00;99.90
17565;DHT22;62994;52.126;5.596;2024-03-02T11:02:26;12.00;99.90
17565;DHT22;62994;52.126;5.596;2024-03-02T11:04:55;12.10;99.90
17565;DHT22;62994;52.126;5.596;2024-03-02T11:07:23;12.20;99.90
17565;DHT22;62994;52.126;5.596;2024-03-02T11:09:55;12.20;99.90
17565;DHT22;62994;52.126;5.596;2024-03-02T11:12:48;12.30;99.90
17565;DHT22;62994;52.126;5.596;2024-03-02T11:15:18;12.40;99.90
17565;DHT22;62994;52.126;5.596;2024-03-02T11:17:46;12.50;99.90
17565;DHT22;62994;52.126;5.596;2024-03-02T11:20:14;12.50;99.90
17565;DHT22;62994;52.126;5.596;2024-03-02T11:22:44;12.60;99.90
17565;DHT22;62994;52.126;5.596;2024-03-02T11:25:24;12.70;99.90
17565;DHT22;62994;52.126;5.596;2024-03-02T11:28:00;12.80;99.90
17565;DHT22;62994;52.126;5.596;2024-03-02T11:30:51;12.80;99.90
17565;DHT22;62994;52.126;5.596;2024-03-02T11:33:28;12.70;99.90
17565;DHT22;62994;52.126;5.596;2024-03-02T11:35:56;12.80;99.90
17565;DHT22;62994;52.126;5.596;2024-03-02T11:38:31;12.90;99.90
17565;DHT22;62994;52.126;5.596;2024-03-02T11:41:07;12.90;99.90
17565;DHT22;62994;52.126;5.596;2024-03-02T11:43:52;13.00;99.90
17565;DHT22;62994;52.126;5.596;2024-03-02T11:46:22;13.10;99.90
17565;DHT22;62994;52.126;5.596;2024-03-02T11:48:49;13.20;99.90
17565;DHT22;62994;52.126;5.596;2024-03-02T11:51:17;13.30;99.90
17565;DHT22;62994;52.126;5.596;2024-03-02T11:53:45;13.40;99.90
17565;DHT22;62994;52.126;5.596;2024-03-02T11:56:15;13.40;99.90
17565;DHT22;62994;52.126;5.596;2024-03-02T11:58:46;13.60;99.90
17565;DHT22;62994;52.126;5.596;2024-03-02T12:01:14;13.70;99.90
17565;DHT22;62994;52.126;5.596;2024-03-02T12:03:41;13.80;99.90
17565;DHT22;62994;52.126;5.596;2024-03-02T12:06:09;13.90;99.90
17565;DHT22;62994;52.126;5.596;2024-03-02T12:08:36;14.00;99.90
17565;DHT22;62994;52.126;5.596;2024-03-02T12:11:04;14.00;99.90
17565;DHT22;62994;52.126;5.596;2024-03-02T12:13:33;14.10;99.90
17565;DHT22;62994;52.126;5.596;2024-03-02T12:16:00;14.20;99.90
17565;DHT22;62994;52.126;5.596;2024-03-02T12:18:28;14.20;99.90
17565;DHT22;62994;52.126;5.596;2024-03-02T12:20:55;14.20;99.90
17565;DHT22;62994;52.126;5.596;2024-03-02T12:23:24;14.30;99.90
17565;DHT22;62994;52.126;5.596;2024-03-02T12:25:51;14.20;99.90
17565;DHT22;62994;52.126;5.596;2024-03-02T12:28:19;14.20;99.90
17565;DHT22;62994;52.126;5.596;2024-03-02T12:30:48;14.30;99.90
17565;DHT22;62994;52.126;5.596;2024-03-02T12:33:23;14.40;99.90
17565;DHT22;62994;52.126;5.596;2024-03-02T12:35:50;14.40;99.90
17565;DHT22;62994;52.126;5.596;2024-03-02T12:38:19;14.40;99.90
17565;DHT22;62994;52.126;5.596;2024-03-02T12:40:49;14.40;99.90
17565;DHT22;62994;52.126;5.596;2024-03-02T12:43:16;14.50;99.90
17565;DHT22;62994;52.126;5.596;2024-03-02T12:45:43;14.50;99.90
17565;DHT22;62994;52.126;5.596;2024-03-02T12:48:13;14.60;99.90
17565;DHT22;62994;52.126;5.596;2024-03-02T12:50:41;14.70;99.90
17565;DHT22;62994;52.126;5.596;2024-03-02T12:53:14;14.70;99.90
17565;DHT22;62994;52.126;5.596;2024-03-02T12:55:41;14.70;99.90
17565;DHT22;62994;52.126;5.596;2024-03-02T12:58:15;14.70;99.90
17565;DHT22;62994;52.126;5.596;2024-03-02T13:00:42;14.80;99.90
17565;DHT22;62994;52.126;5.596;2024-03-02T13:03:09;14.70;99.90
17565;DHT22;62994;52.126;5.596;2024-03-02T13:05:40;14.70;99.90
17565;DHT22;62994;52.126;5.596;2024-03-02T13:08:07;14.80;99.90
17565;DHT22;62994;52.126;5.596;2024-03-02T13:10:34;14.90;99.90
17565;DHT22;62994;52.126;5.596;2024-03-02T13:13:01;15.10;99.90
17565;DHT22;62994;52.126;5.596;2024-03-02T13:15:28;15.10;99.90
17565;DHT22;62994;52.126;5.596;2024-03-02T13:17:58;15.10;99.90
17565;DHT22;62994;52.126;5.596;2024-03-02T13:20:30;15.10;99.90
17565;DHT22;62994;52.126;5.596;2024-03-02T13:22:59;15.20;99.90
17565;DHT22;62994;52.126;5.596;2024-03-02T13:25:27;15.30;99.90
17565;DHT22;62994;52.126;5.596;2024-03-02T13:27:54;15.50;99.90
17565;DHT22;62994;52.126;5.596;2024-03-02T13:30:21;15.60;99.90
17565;DHT22;62994;52.126;5.596;2024-03-02T13:32:47;15.60;99.90
17565;DHT22;62994;52.126;5.596;2024-03-02T13:35:14;15.60;99.90
17565;DHT22;62994;52.126;5.596;2024-03-02T13:37:41;15.70;99.90
17565;DHT22;62994;52.126;5.596;2024-03-02T13:40:10;15.20;99.90
17565;DHT22;62994;52.126;5.596;2024-03-02T13:42:42;15.20;99.90
17565;DHT22;62994;52.126;5.596;2024-03-02T13:45:09;15.30;99.90
17565;DHT22;62994;52.126;5.596;2024-03-02T13:47:36;15.30;99.90
17565;DHT22;62994;52.126;5.596;2024-03-02T13:50:03;15.30;99.90
17565;DHT22;62994;52.126;5.596;2024-03-02T13:52:31;15.40;99.90
17565;DHT22;62994;52.126;5.596;2024-03-02T13:54:58;15.40;99.90
17565;DHT22;62994;52.126;5.596;2024-03-02T13:57:27;15.50;99.90
17565;DHT22;62994;52.126;5.596;2024-03-02T13:59:54;15.60;99.90
17565;DHT22;62994;52.126;5.596;2024-03-02T14:02:21;15.70;99.90
17565;DHT22;62994;52.126;5.596;2024-03-02T14:04:49;15.80;99.90
17565;DHT22;62994;52.126;5.596;2024-03-02T14:07:16;15.90;99.90
17565;DHT22;62994;52.126;5.596;2024-03-02T14:09:43;15.90;99.90
17565;DHT22;62994;52.126;5.596;2024-03-02T14:12:10;15.90;99.90
17565;DHT22;62994;52.126;5.596;2024-03-02T14:14:40;15.80;99.90
17565;DHT22;62994;52.126;5.596;2024-03-02T14:17:07;15.80;99.90
17565;DHT22;62994;52.126;5.596;2024-03-02T14:19:40;15.70;99.90
17565;DHT22;62994;52.126;5.596;2024-03-02T14:22:07;15.70;99.90
17565;DHT22;62994;52.126;5.596;2024-03-02T14:24:35;15.60;99.90
17565;DHT22;62994;52.126;5.596;2024-03-02T14:27:01;15.50;99.90
17565;DHT22;62994;52.126;5.596;2024-03-02T14:29:30;15.50;99.90
17565;DHT22;62994;52.126;5.596;2024-03-02T14:32:00;15.50;99.90
17565;DHT22;62994;52.126;5.596;2024-03-02T14:34:27;15.30;99.90
17565;DHT22;62994;52.126;5.596;2024-03-02T14:36:54;15.30;99.90
17565;DHT22;62994;52.126;5.596;2024-03-02T14:39:21;15.20;99.90
17565;DHT22;62994;52.126;5.596;2024-03-02T14:41:48;15.20;99.90
17565;DHT22;62994;52.126;5.596;2024-03-02T14:44:15;15.20;99.90
17565;DHT22;62994;52.126;5.596;2024-03-02T14:46:43;15.10;99.90
17565;DHT22;62994;52.126;5.596;2024-03-02T14:49:15;15.00;99.90
17565;DHT22;62994;52.126;5.596;2024-03-02T14:51:42;14.90;99.90
17565;DHT22;62994;52.126;5.596;2024-03-02T14:54:10;14.80;99.90
17565;DHT22;62994;52.126;5.596;2024-03-02T14:56:37;14.60;99.90
17565;DHT22;62994;52.126;5.596;2024-03-02T14:59:04;14.50;99.90
17565;DHT22;62994;52.126;5.596;2024-03-02T15:01:31;14.40;99.90
17565;DHT22;62994;52.126;5.596;2024-03-02T15:04:01;14.40;99.90
17565;DHT22;62994;52.126;5.596;2024-03-02T15:06:29;14.30;99.90
17565;DHT22;62994;52.126;5.596;2024-03-02T15:08:57;14.30;99.90
17565;DHT22;62994;52.126;5.596;2024-03-02T15:11:24;14.20;99.90
17565;DHT22;62994;52.126;5.596;2024-03-02T15:13:51;14.10;99.90
17565;DHT22;62994;52.126;5.596;2024-03-02T15:16:18;14.10;99.90
17565;DHT22;62994;52.126;5.596;2024-03-02T15:18:46;14.10;99.90
17565;DHT22;62994;52.126;5.596;2024-03-02T15:21:13;14.10;99.90
17565;DHT22;62994;52.126;5.596;2024-03-02T15:23:42;14.00;99.90
17565;DHT22;62994;52.126;5.596;2024-03-02T15:26:09;14.00;99.90
17565;DHT22;62994;52.126;5.596;2024-03-02T15:28:45;14.10;99.90
17565;DHT22;62994;52.126;5.596;2024-03-02T15:31:17;14.10;99.90
17565;DHT22;62994;52.126;5.596;2024-03-02T15:33:44;14.00;99.90
17565;DHT22;62994;52.126;5.596;2024-03-02T15:36:10;14.00;99.90
17565;DHT22;62994;52.126;5.596;2024-03-02T15:38:37;14.10;99.90
17565;DHT22;62994;52.126;5.596;2024-03-02T15:41:06;14.00;99.90
17565;DHT22;62994;52.126;5.596;2024-03-02T15:43:33;14.00;99.90
17565;DHT22;62994;52.126;5.596;2024-03-02T15:46:04;14.00;99.90
17565;DHT22;62994;52.126;5.596;2024-03-02T15:48:31;13.90;99.90